createdAt,value
2019-02-06T00:01:13.318Z,70.33
2019-02-06T00:06:20.786Z,71.75
2019-02-06T00:11:26.331Z,72.50
2019-02-06T00:16:34.097Z,75.11
2019-02-06T00:21:41.470Z,72.50
2019-02-06T00:26:45.739Z,76.50
2019-02-06T00:31:50.667Z,74.25
2019-02-06T00:36:58.480Z,73.78
2019-02-06T00:42:08.777Z,76.12
2019-02-06T00:47:17.087Z,75.22
2019-02-06T00:52:27.891Z,77.00
2019-02-06T00:57:36.030Z,73.22
2019-02-06T01:02:47.207Z,75.89
2019-02-06T01:07:54.323Z,70.87
2019-02-06T01:13:02.767Z,77.22
2019-02-06T01:18:12.665Z,75.00
2019-02-06T01:23:20.844Z,72.00
2019-02-06T01:28:29.196Z,72.00
2019-02-06T01:33:32.675Z,74.00
2019-02-06T01:38:39.443Z,74.75
2019-02-06T01:43:43.743Z,72.33
2019-02-06T01:48:51.088Z,69.00
2019-02-06T01:53:57.873Z,69.37
2019-02-06T01:59:06.119Z,73.89
2019-02-06T02:04:11.246Z,71.00
2019-02-06T02:09:18.431Z,70.50
2019-02-06T02:14:26.718Z,71.00
2019-02-06T02:19:35.847Z,69.33
2019-02-06T02:24:43.364Z,69.89
2019-02-06T02:29:48.431Z,69.57
2019-02-06T02:34:55.212Z,70.12
2019-02-06T02:40:06.626Z,68.11
2019-02-06T02:45:12.742Z,68.50
2019-02-06T02:50:18.423Z,71.00
2019-02-06T02:55:27.557Z,72.00
2019-02-06T03:00:36.007Z,68.75
2019-02-06T03:05:46.008Z,71.42
2019-02-06T03:10:50.972Z,71.43
2019-02-06T03:15:57.596Z,72.75
2019-02-06T03:21:03.230Z,72.00
2019-02-06T03:26:11.687Z,74.62
2019-02-06T03:31:16.693Z,67.86
2019-02-06T03:36:22.493Z,72.25
2019-02-06T03:41:30.825Z,66.37
2019-02-06T03:46:40.738Z,66.67
2019-02-06T03:51:46.387Z,66.00
2019-02-06T03:56:54.863Z,68.25
2019-02-06T04:02:00.950Z,68.37
2019-02-06T04:07:05.291Z,67.00
2019-02-06T04:12:12.864Z,66.00
2019-02-06T04:17:17.926Z,67.86
2019-02-06T04:22:27.198Z,67.25
2019-02-06T04:27:36.414Z,65.50
2019-02-06T04:32:43.780Z,62.22
2019-02-06T04:37:52.022Z,65.33
2019-02-06T04:42:58.699Z,68.67
2019-02-06T04:48:08.744Z,65.89
2019-02-06T04:53:18.051Z,69.62
2019-02-06T04:58:26.159Z,68.78
2019-02-06T05:03:34.335Z,67.33
2019-02-06T05:08:42.724Z,67.75
2019-02-06T05:13:52.660Z,67.22
2019-02-06T05:19:02.699Z,68.25
2019-02-06T05:24:09.810Z,69.56
2019-02-06T05:29:19.685Z,70.44
2019-02-06T05:34:24.639Z,69.50
2019-02-06T05:39:32.537Z,67.44
2019-02-06T05:44:40.797Z,65.78
2019-02-06T05:49:48.854Z,64.22
2019-02-06T05:54:58.802Z,64.89
2019-02-06T06:00:08.595Z,64.00
2019-02-06T06:05:17.474Z,66.87
2019-02-06T06:10:25.051Z,66.62
2019-02-06T06:15:34.301Z,64.87
2019-02-06T06:20:42.501Z,58.78
2019-02-06T06:25:51.759Z,68.37
2019-02-06T06:30:59.282Z,63.50
2019-02-06T06:36:09.422Z,67.00
2019-02-06T06:41:15.448Z,67.00
2019-02-06T06:46:22.893Z,63.63
2019-02-06T06:51:31.181Z,69.78
2019-02-06T06:56:39.435Z,62.22
2019-02-06T07:01:47.818Z,65.33
2019-02-06T07:06:58.775Z,67.08
2019-02-06T07:12:09.635Z,72.75
2019-02-06T07:17:19.535Z,65.33
2019-02-06T07:22:26.982Z,63.38
2019-02-06T07:27:34.496Z,73.44
2019-02-06T07:32:43.775Z,70.50
2019-02-06T07:37:48.082Z,71.50
2019-02-06T07:42:57.322Z,68.00
2019-02-06T07:48:02.660Z,73.00
2019-02-06T07:53:09.150Z,70.25
2019-02-06T07:58:17.410Z,67.67
2019-02-06T08:03:22.387Z,68.25
2019-02-06T08:08:36.153Z,67.11
2019-02-06T08:13:40.609Z,68.44
2019-02-06T08:18:48.869Z,70.11
2019-02-06T08:23:56.296Z,67.75
2019-02-06T08:29:03.874Z,61.25
2019-02-06T08:34:12.082Z,64.22
2019-02-06T08:39:20.589Z,64.22
2019-02-06T08:44:27.984Z,68.50
2019-02-06T08:49:38.170Z,76.11
2019-02-06T08:54:45.635Z,64.00
2019-02-06T08:59:53.174Z,68.50
2019-02-06T09:05:00.704Z,64.25
2019-02-06T09:10:13.215Z,67.22
2019-02-06T09:15:19.308Z,71.12
2019-02-06T09:20:27.702Z,66.22
2019-02-06T09:25:36.092Z,65.62
2019-02-06T09:30:44.699Z,61.75
2019-02-06T09:35:52.894Z,64.56
2019-02-06T09:41:01.261Z,66.62
2019-02-06T09:46:10.495Z,67.12
2019-02-06T09:51:19.341Z,64.56
2019-02-06T09:56:26.902Z,62.13
2019-02-06T10:01:36.118Z,63.92
2019-02-06T10:06:40.422Z,58.50
2019-02-06T10:11:47.220Z,56.13
2019-02-06T10:16:52.176Z,56.00
2019-02-06T10:21:55.320Z,44.33
2019-02-06T10:27:03.411Z,45.00
2019-02-06T10:32:12.314Z,44.13
2019-02-06T10:37:19.619Z,40.12
2019-02-06T10:42:27.115Z,31.12
2019-02-06T10:47:36.066Z,36.50
2019-02-06T10:52:43.159Z,38.75
2019-02-06T10:57:47.773Z,34.75
2019-02-06T11:02:56.800Z,40.00
2019-02-06T11:08:04.142Z,41.50
2019-02-06T11:13:10.962Z,36.25
2019-02-06T11:18:18.169Z,35.88
2019-02-06T11:23:24.846Z,33.75
2019-02-06T11:28:33.722Z,29.75
2019-02-06T11:33:42.426Z,29.75
2019-02-06T11:38:48.746Z,29.00
2019-02-06T11:43:55.922Z,30.75
2019-02-06T11:49:03.548Z,34.63
2019-02-06T11:54:10.235Z,29.75
2019-02-06T11:59:18.154Z,34.00
2019-02-06T12:04:21.317Z,25.25
2019-02-06T12:09:25.759Z,28.00
2019-02-06T12:14:31.826Z,19.25
2019-02-06T12:19:36.151Z,22.00
2019-02-06T12:24:42.270Z,20.37
2019-02-06T12:29:51.682Z,23.30
2019-02-06T12:34:55.301Z,20.00
2019-02-06T12:39:58.670Z,20.67
2019-02-06T12:45:04.077Z,25.00
2019-02-06T12:50:09.785Z,14.00
2019-02-06T12:55:19.521Z,12.71
2019-02-06T13:00:26.230Z,12.29
2019-02-06T13:05:32.255Z,20.57
2019-02-06T13:10:36.963Z,20.50
2019-02-06T13:15:42.642Z,18.86
2019-02-06T13:20:51.199Z,31.40
2019-02-06T13:25:56.023Z,25.75
2019-02-06T13:31:04.376Z,22.75
2019-02-06T13:36:11.463Z,27.50
2019-02-06T13:41:15.028Z,19.40
2019-02-06T13:46:20.291Z,19.00
2019-02-06T13:51:26.169Z,15.29
2019-02-06T13:56:29.728Z,22.00
2019-02-06T14:01:33.226Z,20.00
2019-02-06T14:06:39.134Z,24.63
2019-02-06T14:11:42.678Z,18.00
2019-02-06T14:16:48.227Z,19.29
2019-02-06T14:21:53.713Z,22.00
2019-02-06T14:26:58.545Z,21.33
2019-02-06T14:32:08.613Z,19.25
2019-02-06T14:37:17.273Z,20.00
2019-02-06T14:42:25.262Z,22.00
2019-02-06T14:47:34.557Z,15.43
2019-02-06T14:52:49.242Z,15.00
2019-02-06T14:58:03.018Z,17.62
2019-02-06T15:03:13.836Z,18.62
2019-02-06T15:08:33.539Z,22.00
2019-02-06T15:13:38.447Z,24.67
2019-02-06T15:18:47.415Z,22.33
2019-02-06T15:23:59.491Z,25.50
2019-02-06T15:29:08.632Z,44.00
2019-02-06T15:34:27.018Z,29.50
2019-02-06T15:39:36.747Z,26.50
2019-02-06T15:44:45.065Z,35.50
2019-02-06T15:49:52.287Z,34.25
2019-02-06T15:55:05.545Z,29.25
2019-02-06T16:00:21.909Z,27.75
2019-02-06T16:05:40.622Z,57.25
2019-02-06T16:10:52.071Z,26.37
2019-02-06T16:16:00.287Z,27.62
2019-02-06T16:21:19.190Z,38.63
2019-02-06T16:26:38.777Z,53.63
2019-02-06T16:32:03.880Z,37.50
2019-02-06T16:37:20.305Z,38.75
2019-02-06T16:42:28.802Z,49.13
2019-02-06T16:47:45.113Z,52.25
2019-02-06T16:52:45.946Z,59.67
2019-02-06T16:57:59.044Z,39.67
2019-02-06T17:03:11.931Z,33.88
2019-02-06T17:08:27.550Z,36.00
2019-02-06T17:13:45.111Z,52.50
2019-02-06T17:18:59.698Z,59.00
2019-02-06T17:24:21.351Z,60.00
2019-02-06T17:29:32.742Z,61.25
2019-02-06T17:34:41.372Z,58.25
2019-02-06T17:39:53.477Z,59.50
2019-02-06T17:44:59.010Z,56.00
2019-02-06T17:50:12.411Z,63.63
2019-02-06T17:55:17.411Z,66.50
2019-02-06T18:00:29.277Z,69.87
2019-02-06T18:05:36.991Z,64.67
2019-02-06T18:10:46.060Z,76.78
2019-02-06T18:15:57.070Z,72.00
2019-02-06T18:21:06.018Z,75.00
2019-02-06T18:26:11.007Z,69.50
2019-02-06T18:31:18.715Z,73.78
2019-02-06T18:36:26.338Z,77.00
2019-02-06T18:41:37.160Z,77.67
2019-02-06T18:46:46.375Z,75.67
2019-02-06T18:51:52.143Z,78.57
2019-02-06T18:57:02.166Z,95.00
2019-02-06T19:02:07.548Z,84.29
2019-02-06T19:07:11.810Z,75.00
2019-02-06T19:12:20.210Z,76.89
2019-02-06T19:17:28.626Z,75.00
2019-02-06T19:22:38.995Z,83.00
2019-02-06T19:27:49.118Z,75.54
2019-02-06T19:32:56.671Z,70.12
2019-02-06T19:38:05.157Z,73.67
2019-02-06T19:43:14.860Z,76.78
2019-02-06T19:48:22.521Z,80.67
2019-02-06T19:53:29.931Z,68.50
2019-02-06T19:58:41.008Z,67.22
2019-02-06T20:03:49.162Z,65.89
2019-02-06T20:08:59.235Z,66.89
2019-02-06T20:14:04.240Z,72.00
2019-02-06T20:19:11.765Z,65.00
2019-02-06T20:24:15.241Z,72.00
2019-02-06T20:29:25.294Z,75.33
2019-02-06T20:34:33.582Z,69.78
2019-02-06T20:39:41.717Z,68.67
2019-02-06T20:44:51.538Z,67.44
2019-02-06T20:49:57.287Z,71.00
2019-02-06T20:55:06.670Z,70.33
2019-02-06T21:00:16.266Z,68.44
2019-02-06T21:05:25.580Z,69.56
2019-02-06T21:10:30.398Z,69.00
2019-02-06T21:15:37.649Z,72.12
2019-02-06T21:20:42.374Z,74.50
2019-02-06T21:25:47.170Z,68.25
2019-02-06T21:30:55.499Z,72.00
2019-02-06T21:36:03.695Z,72.37
2019-02-06T21:41:10.060Z,71.37
2019-02-06T21:46:13.126Z,70.00
2019-02-06T21:51:16.452Z,70.33
2019-02-06T21:56:23.897Z,72.87
2019-02-06T22:01:30.656Z,71.12
2019-02-06T22:06:39.120Z,74.87
2019-02-06T22:11:47.536Z,72.44
2019-02-06T22:16:57.449Z,71.44
2019-02-06T22:22:05.711Z,69.33
2019-02-06T22:27:13.134Z,64.12
2019-02-06T22:32:17.054Z,68.00
2019-02-06T22:37:26.139Z,65.89
2019-02-06T22:42:36.042Z,70.56
2019-02-06T22:47:44.942Z,68.25
2019-02-06T22:52:54.883Z,66.33
2019-02-06T22:58:02.225Z,69.00
2019-02-06T23:03:09.717Z,65.75
2019-02-06T23:08:18.543Z,68.75
2019-02-06T23:13:23.658Z,76.43
2019-02-06T23:18:31.525Z,76.67
2019-02-06T23:23:42.499Z,82.33
2019-02-06T23:28:52.844Z,84.40
2019-02-06T23:34:04.742Z,79.20
2019-02-06T23:39:09.955Z,86.40
2019-02-06T23:44:28.547Z,89.90
2019-02-06T23:49:35.111Z,109.73
2019-02-06T23:54:43.930Z,102.30
2019-02-06T23:59:47.706Z,126.00
